Latest Weather Observations for Swanbourne

IDW60901

Issued at 11:21 pm WST Saturday 18 April 2015 (issued every 10 minutes, with the page automatically refreshed every 10 minutes)

About weather observations | Map of Perth area stations | Latest observations for Perth area | Other Formats
Station Details ID: 009215 Name: SWANBOURNE Lat: -31.96 Lon: 115.76 Height: 40.96 m
Data from the previous 72 hours. | See also: Recent months at Swanbourne
Date/Time
WST
Tmp

°C
App
Tmp
°C
Dew
Point
°C
Rel
Hum
%
Delta-T

°C
Wind Press
QNH
hPa
Press
MSL
hPa
Rain
since
9 am
mm
Dir
 
Spd
km/h
Gust
km/h
Spd
kts
Gust
kts
18/11:00pm 17.9 15.1 8.5 54 4.8 E 13 19 7 10 - - 0.0
18/10:30pm 17.4 15.1 7.5 52 5.0 ESE 9 17 5 9 - - 0.0
18/10:00pm 17.9 15.9 7.3 50 5.3 ESE 7 13 4 7 - - 0.0
18/09:30pm 19.2 16.8 7.0 45 6.2 ESE 9 13 5 7 - - 0.0
18/09:00pm 19.7 16.6 7.1 44 6.4 ESE 13 19 7 10 - - 0.0
18/08:30pm 19.2 16.8 8.5 50 5.6 ESE 11 15 6 8 - - 0.0
18/08:00pm 19.3 17.4 8.9 51 5.5 ESE 9 11 5 6 - - 0.0
18/07:30pm 19.6 17.7 9.2 51 5.5 ESE 9 11 5 6 - - 0.0
18/07:00pm 19.2 18.2 12.2 64 3.9 SE 9 11 5 6 - - 0.0
18/06:30pm 18.9 19.2 14.6 76 2.5 SSE 6 7 3 4 - - 0.0
18/06:00pm 19.7 20.0 14.9 74 2.8 S 7 11 4 6 - - 0.0
18/05:30pm 20.9 20.3 15.7 72 3.1 SSW 13 19 7 10 - - 0.0
18/05:00pm 21.9 20.7 15.0 65 4.1 SSW 15 24 8 13 - - 0.0
18/04:30pm 22.6 20.2 13.7 57 5.2 SSW 19 26 10 14 - - 0.0
18/04:00pm 24.8 23.6 14.0 51 6.4 SSW 13 20 7 11 - - 0.0
18/03:30pm 27.1 24.2 6.5 27 10.8 ESE 11 20 6 11 - - 0.0
18/03:00pm 27.0 23.4 6.9 28 10.6 ESE 15 26 8 14 - - 0.0
18/02:30pm 27.4 24.4 6.2 26 11.1 ESE 11 19 6 10 - - 0.0
18/02:00pm 27.0 24.5 8.0 30 10.2 E 11 17 6 9 - - 0.0
18/01:30pm 27.0 24.5 8.0 30 10.2 ENE 11 22 6 12 - - 0.0
18/01:00pm 25.9 23.4 8.4 33 9.4 E 11 19 6 10 - - 0.0
18/12:30pm 25.8 23.1 8.8 34 9.2 E 13 22 7 12 - - 0.0
18/12:00pm 25.3 23.2 9.6 37 8.6 ENE 11 20 6 11 - - 0.0
18/11:30am 24.8 22.7 9.9 39 8.2 ESE 11 22 6 12 - - 0.0
18/11:00am 23.5 21.1 10.2 43 7.3 E 13 24 7 13 - - 0.0
18/10:30am 21.8 18.1 10.3 48 6.3 E 20 30 11 16 - - 0.0
18/10:00am 20.6 17.0 10.4 52 5.5 ENE 20 30 11 16 - - 0.0
18/09:30am 19.9 16.3 10.0 53 5.3 ENE 19 28 10 15 - - 0.0
18/09:00am 19.2 16.5 10.2 56 4.8 ENE 15 28 8 15 - - 0.0
18/08:30am 18.2 15.1 10.3 60 4.2 E 17 26 9 14 - - 0.0
18/08:00am 16.6 13.9 10.5 67 3.2 E 15 20 8 11 - - 0.0
18/07:30am 14.8 12.1 10.4 75 2.3 E 15 22 8 12 - - 0.0
18/07:00am 13.9 10.7 9.9 77 2.1 E 17 22 9 12 - - 0.0
18/06:30am 13.4 10.5 9.6 78 1.9 ESE 15 22 8 12 - - 0.0
18/06:00am 12.6 10.2 10.1 85 1.3 ESE 13 19 7 10 - - 0.0
18/05:30am 12.5 10.1 9.9 84 1.3 ESE 13 17 7 9 - - 0.0
18/05:00am 12.8 10.3 9.8 82 1.5 ESE 13 17 7 9 - - 0.0
18/04:30am 13.1 10.2 9.7 80 1.7 ESE 15 20 8 11 - - 0.0
18/04:00am 12.9 10.1 9.9 82 1.5 ESE 15 20 8 11 - - 0.0
18/03:30am 12.8 10.7 9.8 82 1.5 SE 11 15 6 8 - - 0.0
18/03:00am 13.1 10.7 10.1 82 1.5 SE 13 19 7 10 - - 0.0
18/02:30am 13.3 11.1 10.7 84 1.4 SE 13 20 7 11 - - 0.0
18/02:00am 13.4 11.6 10.8 84 1.4 SE 11 17 6 9 - - 0.0
18/01:30am 13.6 11.8 11.0 84 1.4 SE 11 19 6 10 - - 0.0
18/01:00am 13.4 12.0 10.8 84 1.4 SE 9 13 5 7 - - 0.0
18/12:30am 13.5 12.4 10.5 82 1.6 SSE 7 9 4 5 - - 0.0
18/12:00am 14.5 13.2 11.1 80 1.8 SE 9 15 5 8 - - 0.0
 
Date/Time
WST
Tmp

°C
App
Tmp
°C
Dew
Point
°C
Rel
Hum
%
Delta-T

°C
Wind Press
QNH
hPa
Press
MSL
hPa
Rain
since
9 am
mm
Dir
 
Spd
km/h
Gust
km/h
Spd
kts
Gust
kts
17/11:30pm 14.9 13.3 11.7 81 1.7 SSE 11 17 6 9 - - 0.0
17/11:00pm 15.0 13.4 11.6 80 1.8 SE 11 17 6 9 - - 0.0
17/10:30pm 15.2 13.6 11.6 79 1.9 SE 11 15 6 8 - - 0.0
17/10:00pm 16.0 14.5 11.8 76 2.3 SE 11 17 6 9 - - 0.0
17/09:30pm 16.5 14.7 12.1 75 2.4 SSE 13 20 7 11 - - 0.0
17/09:00pm 16.8 15.3 11.9 73 2.7 SSE 11 15 6 8 - - 0.0
17/08:30pm 17.3 15.0 11.8 70 3.0 SSE 15 24 8 13 - - 0.0
17/08:00pm 17.7 15.0 11.7 68 3.3 S 17 30 9 16 - - 0.0
17/07:30pm 18.1 15.3 11.4 65 3.7 S 17 26 9 14 - - 0.0
17/07:00pm 18.2 15.1 11.7 66 3.6 SSW 19 28 10 15 - - 0.0
17/06:30pm 18.1 15.3 11.2 64 3.8 SSW 17 24 9 13 - - 0.0
17/06:00pm 18.2 15.3 9.5 57 4.6 SSW 15 22 8 12 - - 0.0
17/05:30pm 18.8 16.0 11.4 62 4.1 SSW 17 26 9 14 - - 0.0
17/05:00pm 19.1 16.3 11.4 61 4.2 SSW 17 24 9 13 - - 0.0
17/04:30pm 20.6 17.6 11.8 57 4.9 SSW 19 26 10 14 - - 0.0
17/04:00pm 21.1 18.5 12.0 56 5.1 SSW 17 24 9 13 - - 0.0
17/03:30pm 21.2 18.6 12.1 56 5.1 SSW 17 26 9 14 - - 0.0
17/03:00pm 21.4 18.8 13.1 59 4.8 SW 19 28 10 15 - - 0.0
17/02:30pm 21.5 18.8 12.9 58 4.9 SW 19 24 10 13 - - 0.0
17/02:00pm 22.1 20.2 12.9 56 5.3 SSW 15 26 8 14 - - 0.0
17/01:30pm 22.1 19.9 13.2 57 5.1 SW 17 22 9 12 - - 0.0
17/01:00pm 22.0 20.2 12.0 53 5.6 SW 13 19 7 10 - - 0.0
17/12:30pm 21.7 19.7 11.4 52 5.7 SW 13 19 7 10 - - 0.0
17/12:00pm 22.0 20.4 11.4 51 5.9 SW 11 15 6 8 - - 0.0
17/11:30am 21.2 19.7 10.7 51 5.8 SW 9 13 5 7 - - 0.0
17/11:00am 20.8 19.5 10.0 50 5.8 WSW 7 11 4 6 - - 0.0
17/10:30am 20.7 19.0 9.9 50 5.8 WSW 9 13 5 7 - - 0.0
17/10:00am 20.9 20.0 9.2 47 6.2 ENE 4 9 2 5 - - 0.0
17/09:30am 20.1 18.7 8.8 48 5.9 E 6 7 3 4 - - 0.0
17/09:00am 18.4 16.6 7.8 50 5.4 E 7 13 4 7 - - 0.0
17/08:30am 16.6 13.5 7.3 54 4.6 E 13 19 7 10 - - 0.0
17/08:00am 15.0 11.8 6.8 58 4.0 E 13 20 7 11 - - 0.0
17/07:30am 13.1 9.9 6.7 65 3.1 E 13 20 7 11 - - 0.0
17/07:00am 12.4 8.3 6.2 66 2.9 E 17 24 9 13 - - 0.0
17/06:30am 12.1 7.9 5.9 66 2.9 E 17 22 9 12 - - 0.0
17/06:00am 12.5 8.3 5.9 64 3.1 E 17 22 9 12 - - 0.0
17/05:30am 13.1 8.5 5.8 61 3.4 E 19 24 10 13 - - 0.0
17/05:00am 13.2 9.0 5.9 61 3.5 E 17 20 9 11 - - 0.0
17/04:30am 13.1 9.3 5.8 61 3.4 E 15 19 8 10 - - 0.0
17/04:00am 13.6 9.4 5.7 59 3.7 E 17 24 9 13 - - 0.0
17/03:30am 13.9 9.7 5.8 58 3.8 E 17 22 9 12 - - 0.0
17/03:00am 13.8 10.0 5.9 59 3.8 E 15 20 8 11 - - 0.0
17/02:30am 13.2 9.5 6.1 62 3.4 E 15 19 8 10 - - 0.0
17/02:00am 12.7 9.4 6.3 65 3.0 E 13 17 7 9 - - 0.0
17/01:30am 13.2 10.1 7.4 68 2.8 E 13 17 7 9 - - 0.0
17/01:00am 13.1 10.3 7.1 67 2.9 ESE 11 13 6 7 - - 0.0
17/12:30am 13.8 11.4 7.1 64 3.3 ESE 9 13 5 7 - - 0.0
17/12:00am 13.8 11.5 7.3 65 3.2 ESE 9 11 5 6 - - 0.0
 
Date/Time
WST
Tmp

°C
App
Tmp
°C
Dew
Point
°C
Rel
Hum
%
Delta-T

°C
Wind Press
QNH
hPa
Press
MSL
hPa
Rain
since
9 am
mm
Dir
 
Spd
km/h
Gust
km/h
Spd
kts
Gust
kts
16/11:30pm 14.1 11.7 6.9 62 3.5 SE 9 13 5 7 - - 0.0
16/11:00pm 14.2 11.8 6.8 61 3.6 SE 9 11 5 6 - - 0.0
16/10:30pm 14.7 12.6 6.5 58 4.0 SE 7 9 4 5 - - 0.0
16/10:00pm 15.2 13.1 6.7 57 4.2 SSE 7 9 4 5 - - 0.0
16/09:30pm 15.0 13.0 6.3 56 4.2 SSE 6 7 3 4 - - 0.0
16/09:00pm 15.2 13.1 5.7 53 4.5 ESE 6 7 3 4 - - 0.0
16/08:30pm 16.4 13.7 5.7 49 5.2 ESE 9 13 5 7 - - 0.0
16/08:00pm 16.7 14.4 5.6 48 5.4 E 7 11 4 6 - - 0.0
16/07:30pm 17.6 15.0 5.9 46 5.7 ESE 9 11 5 6 - - 0.0
16/07:00pm 18.2 15.5 5.4 43 6.2 ESE 9 11 5 6 - - 0.0
16/06:30pm 19.0 15.9 5.5 41 6.6 ESE 11 15 6 8 - - 0.0
16/06:00pm 19.8 16.6 5.1 38 7.2 ESE 11 20 6 11 - - 0.0
16/05:30pm 20.8 17.2 5.2 36 7.7 ESE 13 22 7 12 - - 0.0
16/05:00pm 21.9 17.9 4.9 33 8.4 SE 15 22 8 12 - - 0.0
16/04:30pm 22.7 19.1 5.2 32 8.7 ESE 13 24 7 13 - - 0.0
16/04:00pm 22.9 19.1 5.8 33 8.6 ESE 15 24 8 13 - - 0.0
16/03:30pm 23.3 19.5 5.7 32 8.9 SE 15 24 8 13 - - 0.0
16/03:00pm 23.6 19.9 6.4 33 8.8 SE 15 24 8 13 - - 0.0
16/02:30pm 23.2 19.4 5.6 32 8.9 SE 15 22 8 12 - - 0.0
16/02:00pm 23.1 19.4 6.4 34 8.6 SE 15 26 8 14 - - 0.0
16/01:30pm 22.7 19.3 6.0 34 8.5 ESE 13 26 7 14 - - 0.0
16/01:00pm 21.8 18.1 6.5 37 7.8 E 15 28 8 15 - - 0.0
16/12:30pm 22.5 19.5 7.5 38 7.8 SE 13 24 7 13 - - 0.0
16/12:00pm 21.3 17.7 6.8 39 7.4 ESE 15 24 8 13 - - 0.0
16/11:30am 21.1 18.0 7.3 41 7.1 SE 13 26 7 14 - - 0.0
16/11:00am 20.0 16.4 6.7 42 6.7 ESE 15 26 8 14 - - 0.0
16/10:30am 18.8 14.6 7.3 47 5.8 E 19 30 10 16 - - 0.0
16/10:00am 17.9 13.5 7.3 50 5.3 E 20 37 11 20 - - 0.0
16/09:30am 17.6 13.5 7.9 53 4.9 E 19 32 10 17 - - 0.0
16/09:00am 16.8 13.0 7.7 55 4.6 ENE 17 26 9 14 - - 0.0
16/08:30am 15.7 11.8 7.2 57 4.2 E 17 26 9 14 - - 0.0
16/08:00am 14.6 11.4 6.7 59 3.8 E 13 22 7 12 - - 0.0
16/07:30am 12.8 9.1 6.4 65 3.1 E 15 24 8 13 - - 0.0
16/07:00am 13.0 9.3 6.4 64 3.2 E 15 22 8 12 - - 0.0
16/06:30am 12.6 8.9 6.4 66 3.0 E 15 20 8 11 - - 0.0
16/06:00am 12.6 8.9 6.2 65 3.0 E 15 26 8 14 - - 0.0
16/05:30am 13.0 8.5 6.1 63 3.3 E 19 30 10 16 - - 0.0
16/05:00am 13.0 9.2 5.7 61 3.4 E 15 24 8 13 - - 0.0
16/04:30am 13.1 9.2 5.5 60 3.6 E 15 24 8 13 - - 0.0
16/04:00am 12.9 9.4 5.6 61 3.4 E 13 19 7 10 - - 0.0
16/03:30am 13.2 9.7 5.6 60 3.6 E 13 20 7 11 - - 0.0
16/03:00am 13.2 9.8 5.9 61 3.5 E 13 19 7 10 - - 0.0
16/02:30am 13.0 9.3 6.4 64 3.2 ESE 15 24 8 13 - - 0.0
16/02:00am 12.6 9.6 6.2 65 3.0 SE 11 17 6 9 - - 0.0
16/01:30am 12.9 9.6 6.3 64 3.1 SE 13 19 7 10 - - 0.0
16/01:00am 12.6 10.1 6.4 66 3.0 SE 9 17 5 9 - - 0.0
16/12:30am 13.0 10.5 6.4 64 3.2 SE 9 15 5 8 - - 0.0
16/12:00am 13.7 10.8 6.3 61 3.5 SE 11 17 6 9 - - 0.0
 
Date/Time
WST
Tmp

°C
App
Tmp
°C
Dew
Point
°C
Rel
Hum
%
Delta-T

°C
Wind Press
QNH
hPa
Press
MSL
hPa
Rain
since
9 am
mm
Dir
 
Spd
km/h
Gust
km/h
Spd
kts
Gust
kts
15/11:30pm 14.1 10.7 6.0 58 3.9 SE 13 19 7 10 - - 0.0

Latest Capital City Observations: Canberra | Sydney | Melbourne | Brisbane | Adelaide | Perth | Hobart | Darwin

Other Formats:

Comma delimited format used in spreadsheet applications
http://www.bom.gov.au/fwo/IDW60901/IDW60901.94614.axf

JavaScript Object Notation format (JSON) in row-major order
http://www.bom.gov.au/fwo/IDW60901/IDW60901.94614.json